Time;durP1;ratioP1;P1;durP2;ratioP2;P2;SDS_P1;SDS_P2;PMS_P1;PMS_P2;Temp;Humidity;BMP_temperature;BMP_pressure;BME280_temperature;BME280_humidity;BME280_pressure;Samples;Min_cycle;Max_cycle;Signal;HPM_P1;HPM_P2
2023/12/24 00:01:07;;;;;;;3.50;1.57;;;;;;;;;;755529;183;908919;-68
2023/12/24 00:03:33;;;;;;;2.90;1.47;;;;;;;;;;762444;183;769704;-68
2023/12/24 00:05:59;;;;;;;3.40;1.70;;;;;;;;;;757276;183;909437;-68
2023/12/24 00:08:25;;;;;;;3.00;1.60;;;;;;;;;;755434;183;918403;-67
2023/12/24 00:10:51;;;;;;;2.60;1.50;;;;;;;;;;759668;183;843371;-68
2023/12/24 00:13:16;;;;;;;2.80;1.50;;;;;;;;;;758293;183;1020847;-67
2023/12/24 00:15:42;;;;;;;2.70;1.47;;;;;;;;;;757547;183;918931;-68
2023/12/24 00:18:09;;;;;;;3.30;2.20;;;;;;;;;;757029;183;918674;-68
2023/12/24 00:20:34;;;;;;;2.73;1.50;;;;;;;;;;759235;183;916088;-68
2023/12/24 00:23:04;;;;;;;3.30;1.77;;;;;;;;;;757672;183;919668;-68
2023/12/24 00:25:29;;;;;;;3.93;1.93;;;;;;;;;;752695;183;918717;-68
2023/12/24 00:27:55;;;;;;;3.90;1.70;;;;;;;;;;760339;183;919719;-67
2023/12/24 00:30:21;;;;;;;4.53;2.20;;;;;;;;;;755982;183;919657;-66
2023/12/24 00:32:46;;;;;;;3.73;1.80;;;;;;;;;;754776;183;919446;-67
2023/12/24 00:35:12;;;;;;;3.27;1.77;;;;;;;;;;757085;183;928435;-64
2023/12/24 00:37:38;;;;;;;4.67;2.07;;;;;;;;;;753034;183;916452;-67
2023/12/24 00:40:04;;;;;;;3.90;1.83;;;;;;;;;;757925;183;918885;-67
2023/12/24 00:42:30;;;;;;;2.50;1.70;;;;;;;;;;756262;183;918408;-68
2023/12/24 00:44:56;;;;;;;4.10;1.97;;;;;;;;;;754572;182;905381;-67
2023/12/24 00:47:22;;;;;;;3.37;1.80;;;;;;;;;;760266;182;818093;-67
2023/12/24 00:49:48;;;;;;;3.30;2.13;;;;;;;;;;754634;183;919356;-67
2023/12/24 00:52:13;;;;;;;2.90;1.90;;;;;;;;;;761050;183;914102;-67
2023/12/24 00:54:39;;;;;;;3.23;2.13;;;;;;;;;;755564;183;818342;-68
2023/12/24 00:57:05;;;;;;;3.67;2.40;;;;;;;;;;758755;183;902459;-69
2023/12/24 00:59:31;;;;;;;4.68;2.45;;;;;;;;;;760048;183;800543;-68
2023/12/24 01:01:57;;;;;;;4.27;3.07;;;;;;;;;;753967;183;919378;-65
2023/12/24 01:04:23;;;;;;;4.83;3.00;;;;;;;;;;754769;183;922378;-66
2023/12/24 01:06:49;;;;;;;3.30;2.40;;;;;;;;;;762111;183;856984;-67
2023/12/24 01:09:15;;;;;;;3.80;2.30;;;;;;;;;;755779;183;994512;-66
2023/12/24 01:11:41;;;;;;;4.60;2.93;;;;;;;;;;754060;183;918887;-66
2023/12/24 01:14:07;;;;;;;3.07;2.23;;;;;;;;;;755974;183;918839;-67
2023/12/24 01:16:32;;;;;;;3.37;2.20;;;;;;;;;;759213;183;920746;-65
2023/12/24 01:18:58;;;;;;;3.20;2.10;;;;;;;;;;755941;183;914796;-66
2023/12/24 01:21:24;;;;;;;2.67;1.87;;;;;;;;;;753120;183;919944;-67
2023/12/24 01:23:50;;;;;;;4.83;2.47;;;;;;;;;;760573;183;918715;-66
2023/12/24 01:26:16;;;;;;;3.30;2.47;;;;;;;;;;758616;183;919901;-65
2023/12/24 01:28:42;;;;;;;3.90;2.30;;;;;;;;;;756212;183;915216;-65
2023/12/24 01:31:07;;;;;;;3.90;2.47;;;;;;;;;;758847;183;914262;-65
2023/12/24 01:33:33;;;;;;;2.90;1.70;;;;;;;;;;757600;183;818061;-67
2023/12/24 01:35:59;;;;;;;3.10;2.05;;;;;;;;;;755192;183;919550;-66
2023/12/24 01:38:25;;;;;;;5.57;2.50;;;;;;;;;;754308;183;918621;-65
2023/12/24 01:40:51;;;;;;;4.33;2.40;;;;;;;;;;753321;184;917309;-66
2023/12/24 01:43:17;;;;;;;3.53;2.50;;;;;;;;;;744922;186;922173;-65
2023/12/24 01:45:42;;;;;;;3.30;2.05;;;;;;;;;;744660;187;917510;-66
2023/12/24 01:48:08;;;;;;;2.60;1.93;;;;;;;;;;763852;183;932585;-65
2023/12/24 01:50:35;;;;;;;3.60;2.13;;;;;;;;;;755662;183;919266;-65
2023/12/24 01:53:00;;;;;;;3.63;2.43;;;;;;;;;;757019;183;918030;-66
2023/12/24 01:55:26;;;;;;;4.33;2.40;;;;;;;;;;762954;183;917501;-67
2023/12/24 01:57:52;;;;;;;3.65;2.30;;;;;;;;;;752591;183;918308;-66
2023/12/24 02:00:19;;;;;;;3.27;2.40;;;;;;;;;;758192;184;822615;-66
2023/12/24 02:02:44;;;;;;;3.95;2.53;;;;;;;;;;762095;183;920815;-66
2023/12/24 02:05:10;;;;;;;6.03;3.20;;;;;;;;;;764586;182;919115;-67
2023/12/24 02:07:36;;;;;;;6.40;3.67;;;;;;;;;;758831;183;818532;-67
2023/12/24 02:10:02;;;;;;;5.80;3.00;;;;;;;;;;761071;180;918942;-66
2023/12/24 02:12:28;;;;;;;3.43;2.50;;;;;;;;;;760073;183;914789;-66
2023/12/24 02:14:54;;;;;;;3.90;2.33;;;;;;;;;;759734;183;894079;-66
2023/12/24 02:17:19;;;;;;;3.03;2.33;;;;;;;;;;760491;183;858122;-66
2023/12/24 02:19:45;;;;;;;3.40;2.30;;;;;;;;;;763979;183;798025;-67
2023/12/24 02:22:11;;;;;;;4.73;2.67;;;;;;;;;;761097;183;908020;-66
2023/12/24 02:24:37;;;;;;;3.93;2.80;;;;;;;;;;753536;183;915626;-66
2023/12/24 02:27:19;;;;;;;4.85;3.15;;;;;;;;;;757099;183;818753;-65
2023/12/24 02:29:44;;;;;;;3.80;2.60;;;;;;;;;;759116;184;916217;-66
2023/12/24 02:32:11;;;;;;;3.90;3.05;;;;;;;;;;754443;183;915615;-66
2023/12/24 02:34:37;;;;;;;5.20;3.40;;;;;;;;;;752697;183;916446;-66
2023/12/24 02:37:03;;;;;;;3.53;2.47;;;;;;;;;;756974;183;916216;-67
2023/12/24 02:39:29;;;;;;;4.43;2.83;;;;;;;;;;759220;183;920141;-66
2023/12/24 02:41:54;;;;;;;4.37;3.00;;;;;;;;;;755043;183;918842;-66
2023/12/24 02:44:20;;;;;;;6.50;3.43;;;;;;;;;;755709;183;918123;-66
2023/12/24 02:46:46;;;;;;;5.00;2.93;;;;;;;;;;760905;183;918384;-66
2023/12/24 02:49:14;;;;;;;5.50;2.60;;;;;;;;;;754799;183;918792;-66
2023/12/24 02:51:38;;;;;;;6.00;2.57;;;;;;;;;;755519;183;915992;-67
2023/12/24 02:54:04;;;;;;;3.63;2.30;;;;;;;;;;754006;183;923418;-65
2023/12/24 02:56:36;;;;;;;4.33;2.33;;;;;;;;;;754092;183;934441;-66
2023/12/24 02:58:55;;;;;;;4.72;2.37;;;;;;;;;;753367;183;918041;-65
2023/12/24 03:01:21;;;;;;;3.50;2.20;;;;;;;;;;753965;183;919558;-66
2023/12/24 03:03:47;;;;;;;4.67;2.10;;;;;;;;;;756694;183;920530;-66
2023/12/24 03:06:13;;;;;;;4.10;2.23;;;;;;;;;;751146;184;918904;-65
2023/12/24 03:08:39;;;;;;;3.30;1.77;;;;;;;;;;758886;182;822896;-66
2023/12/24 03:11:04;;;;;;;3.33;2.00;;;;;;;;;;764601;183;897205;-65
2023/12/24 03:13:30;;;;;;;3.63;2.30;;;;;;;;;;755860;183;919278;-66
2023/12/24 03:15:56;;;;;;;3.83;2.33;;;;;;;;;;757575;183;919436;-66
2023/12/24 03:18:22;;;;;;;4.07;1.80;;;;;;;;;;761672;183;919979;-67
2023/12/24 03:20:48;;;;;;;3.73;2.13;;;;;;;;;;757375;183;919527;-68
2023/12/24 03:23:14;;;;;;;2.97;1.63;;;;;;;;;;754848;183;918662;-67
2023/12/24 03:25:39;;;;;;;3.10;2.00;;;;;;;;;;763458;183;713875;-68
2023/12/24 03:28:06;;;;;;;4.25;1.98;;;;;;;;;;756572;184;920448;-66
2023/12/24 03:30:31;;;;;;;5.60;1.93;;;;;;;;;;753391;183;915423;-66
2023/12/24 03:32:57;;;;;;;3.40;1.80;;;;;;;;;;752614;183;914870;-68
2023/12/24 03:35:23;;;;;;;3.50;2.30;;;;;;;;;;758369;183;913334;-67
2023/12/24 03:37:49;;;;;;;2.90;1.37;;;;;;;;;;751854;183;916006;-66
2023/12/24 03:40:14;;;;;;;3.50;1.77;;;;;;;;;;756473;183;919469;-67
2023/12/24 03:42:40;;;;;;;2.50;1.33;;;;;;;;;;760351;183;815718;-67
2023/12/24 03:45:06;;;;;;;3.00;1.83;;;;;;;;;;754550;183;917197;-67
2023/12/24 03:47:32;;;;;;;3.23;1.80;;;;;;;;;;751798;183;918711;-66
2023/12/24 03:49:58;;;;;;;3.28;1.73;;;;;;;;;;760936;183;822935;-66
2023/12/24 03:52:24;;;;;;;4.23;2.27;;;;;;;;;;756194;183;918577;-68
2023/12/24 03:54:50;;;;;;;2.65;1.45;;;;;;;;;;753477;183;918411;-67
2023/12/24 03:57:15;;;;;;;3.73;1.80;;;;;;;;;;754133;184;915119;-66
2023/12/24 03:59:41;;;;;;;3.87;2.20;;;;;;;;;;747570;187;918151;-66
2023/12/24 04:02:07;;;;;;;3.47;2.03;;;;;;;;;;744497;187;882804;-68
2023/12/24 04:04:33;;;;;;;5.40;3.20;;;;;;;;;;743488;187;878862;-67
2023/12/24 04:07:00;;;;;;;3.50;2.20;;;;;;;;;;750507;187;918523;-65
2023/12/24 04:09:25;;;;;;;4.87;2.80;;;;;;;;;;760333;183;820518;-67
2023/12/24 04:11:51;;;;;;;3.40;2.50;;;;;;;;;;753938;183;922251;-68
2023/12/24 04:14:16;;;;;;;3.33;1.93;;;;;;;;;;758841;183;816702;-66
2023/12/24 04:16:42;;;;;;;3.80;2.27;;;;;;;;;;752151;183;918605;-66
2023/12/24 04:19:08;;;;;;;6.57;2.60;;;;;;;;;;758798;181;937344;-65
2023/12/24 04:21:34;;;;;;;5.07;2.40;;;;;;;;;;765510;182;818118;-66
2023/12/24 04:24:00;;;;;;;4.37;2.57;;;;;;;;;;755199;184;916072;-65
2023/12/24 04:26:25;;;;;;;5.17;3.57;;;;;;;;;;755323;183;820809;-68
2023/12/24 04:28:51;;;;;;;3.97;2.10;;;;;;;;;;756779;183;919357;-66
2023/12/24 04:31:17;;;;;;;4.00;2.15;;;;;;;;;;760726;183;908275;-65
2023/12/24 04:33:43;;;;;;;3.20;1.50;;;;;;;;;;760184;183;914878;-66
2023/12/24 04:36:09;;;;;;;3.43;1.60;;;;;;;;;;756810;183;918490;-66
2023/12/24 04:38:35;;;;;;;3.07;1.30;;;;;;;;;;760038;183;919365;-65
2023/12/24 04:41:00;;;;;;;2.60;1.50;;;;;;;;;;753250;183;818602;-66
2023/12/24 04:43:26;;;;;;;3.50;1.70;;;;;;;;;;754695;184;919425;-66
2023/12/24 04:45:52;;;;;;;2.63;1.10;;;;;;;;;;759615;183;912682;-67
2023/12/24 04:48:18;;;;;;;2.45;1.35;;;;;;;;;;754109;183;923266;-67
2023/12/24 04:50:44;;;;;;;3.03;1.20;;;;;;;;;;753863;183;928746;-67
2023/12/24 04:53:10;;;;;;;2.60;1.40;;;;;;;;;;756919;183;882045;-67
2023/12/24 04:55:36;;;;;;;3.00;1.27;;;;;;;;;;752346;183;908103;-67
2023/12/24 04:58:02;;;;;;;2.33;1.23;;;;;;;;;;753434;183;909878;-66
2023/12/24 05:00:27;;;;;;;2.77;1.50;;;;;;;;;;752322;183;920618;-64
2023/12/24 05:02:53;;;;;;;3.03;1.70;;;;;;;;;;759070;183;919272;-65
2023/12/24 05:05:19;;;;;;;2.33;1.43;;;;;;;;;;758602;183;811429;-65
2023/12/24 05:07:45;;;;;;;3.43;1.43;;;;;;;;;;753805;183;908667;-65
2023/12/24 05:10:11;;;;;;;2.50;1.30;;;;;;;;;;758817;183;918569;-65
2023/12/24 05:12:37;;;;;;;3.47;1.30;;;;;;;;;;758525;183;787920;-65
2023/12/24 05:15:02;;;;;;;2.27;1.20;;;;;;;;;;755668;184;920346;-64
2023/12/24 05:17:28;;;;;;;2.10;0.90;;;;;;;;;;758834;183;944472;-67
2023/12/24 05:19:54;;;;;;;2.00;0.90;;;;;;;;;;757734;183;916164;-68
2023/12/24 05:22:20;;;;;;;2.40;1.23;;;;;;;;;;754885;183;921862;-65
2023/12/24 05:24:46;;;;;;;2.73;1.50;;;;;;;;;;753490;183;918093;-65
2023/12/24 05:27:12;;;;;;;2.57;1.20;;;;;;;;;;758264;183;918739;-64
2023/12/24 05:29:37;;;;;;;2.10;1.17;;;;;;;;;;756689;183;817342;-65
2023/12/24 05:32:04;;;;;;;2.00;0.90;;;;;;;;;;758697;182;922760;-64
2023/12/24 05:34:29;;;;;;;5.27;1.40;;;;;;;;;;761953;183;817676;-67
2023/12/24 05:36:55;;;;;;;3.20;1.53;;;;;;;;;;755379;183;919203;-63
2023/12/24 05:39:21;;;;;;;3.10;1.67;;;;;;;;;;756540;183;917815;-67
2023/12/24 05:41:47;;;;;;;4.45;2.47;;;;;;;;;;760010;183;816865;-67
2023/12/24 05:44:13;;;;;;;4.70;1.83;;;;;;;;;;755591;183;820059;-66
2023/12/24 05:46:39;;;;;;;5.40;2.70;;;;;;;;;;752938;183;910452;-66
2023/12/24 05:49:05;;;;;;;2.72;1.80;;;;;;;;;;755928;183;872132;-64
2023/12/24 05:51:30;;;;;;;3.43;1.90;;;;;;;;;;753566;184;909539;-66
2023/12/24 05:53:56;;;;;;;3.87;2.40;;;;;;;;;;745402;186;908771;-64
2023/12/24 05:56:22;;;;;;;3.93;2.07;;;;;;;;;;755771;183;942098;-64
2023/12/24 05:58:48;;;;;;;2.83;1.53;;;;;;;;;;760044;183;920584;-66
2023/12/24 06:01:14;;;;;;;2.57;1.50;;;;;;;;;;755956;183;914240;-66
2023/12/24 06:03:40;;;;;;;4.43;2.87;;;;;;;;;;754756;183;919065;-64
2023/12/24 06:06:05;;;;;;;3.05;1.95;;;;;;;;;;761931;183;918403;-68
2023/12/24 06:08:31;;;;;;;3.03;2.50;;;;;;;;;;754885;182;923200;-65
2023/12/24 06:10:57;;;;;;;4.13;2.20;;;;;;;;;;756644;183;813673;-65
2023/12/24 06:13:23;;;;;;;5.30;2.47;;;;;;;;;;760112;183;919285;-67
2023/12/24 06:15:49;;;;;;;5.37;1.87;;;;;;;;;;756649;183;817822;-68
2023/12/24 06:18:15;;;;;;;5.97;2.97;;;;;;;;;;755801;183;919266;-67
2023/12/24 06:20:41;;;;;;;2.83;1.80;;;;;;;;;;755190;183;917421;-67
2023/12/24 06:23:06;;;;;;;3.22;2.00;;;;;;;;;;765928;183;810440;-66
2023/12/24 06:25:34;;;;;;;3.90;2.30;;;;;;;;;;755042;183;913508;-66
2023/12/24 06:27:58;;;;;;;3.35;1.83;;;;;;;;;;754947;183;914038;-65
2023/12/24 06:30:24;;;;;;;3.30;2.57;;;;;;;;;;759206;183;918949;-66
2023/12/24 06:32:50;;;;;;;4.50;2.83;;;;;;;;;;752026;183;920601;-67
2023/12/24 06:35:16;;;;;;;3.60;2.50;;;;;;;;;;752428;183;926612;-68
2023/12/24 06:37:41;;;;;;;3.60;2.00;;;;;;;;;;758290;183;914138;-66
2023/12/24 06:40:08;;;;;;;4.00;2.30;;;;;;;;;;753030;183;917962;-66
2023/12/24 06:42:33;;;;;;;4.93;2.40;;;;;;;;;;751075;183;919474;-66
2023/12/24 06:44:59;;;;;;;3.57;2.30;;;;;;;;;;760915;183;816059;-66
2023/12/24 06:47:25;;;;;;;3.03;1.77;;;;;;;;;;754513;183;918629;-66
2023/12/24 06:49:51;;;;;;;3.13;1.93;;;;;;;;;;759085;183;918903;-65
2023/12/24 06:52:17;;;;;;;4.35;2.30;;;;;;;;;;753638;183;827523;-64
2023/12/24 06:54:43;;;;;;;3.77;2.50;;;;;;;;;;762540;183;906246;-66
2023/12/24 06:57:08;;;;;;;4.95;2.90;;;;;;;;;;749886;183;1730329;-66
2023/12/24 06:59:34;;;;;;;4.57;2.90;;;;;;;;;;760536;183;916003;-66
2023/12/24 07:02:00;;;;;;;3.33;2.10;;;;;;;;;;762033;183;913667;-64
2023/12/24 07:04:26;;;;;;;4.67;2.53;;;;;;;;;;755223;183;918040;-64
2023/12/24 07:06:52;;;;;;;4.50;2.80;;;;;;;;;;754734;183;918281;-67
2023/12/24 07:09:18;;;;;;;5.30;2.83;;;;;;;;;;759313;183;814980;-65
2023/12/24 07:11:44;;;;;;;3.93;2.40;;;;;;;;;;760403;183;848526;-69
2023/12/24 07:14:09;;;;;;;6.23;2.20;;;;;;;;;;753208;183;1020972;-65
2023/12/24 07:16:36;;;;;;;4.83;2.60;;;;;;;;;;758863;183;927832;-65
2023/12/24 07:19:05;;;;;;;5.50;2.57;;;;;;;;;;758207;183;648547;-65
2023/12/24 07:21:27;;;;;;;3.63;2.40;;;;;;;;;;763146;183;620828;-68
2023/12/24 07:23:53;;;;;;;5.07;2.70;;;;;;;;;;757252;183;915724;-64
2023/12/24 07:26:20;;;;;;;5.80;2.50;;;;;;;;;;763907;183;773846;-64
2023/12/24 07:28:44;;;;;;;5.83;2.90;;;;;;;;;;761100;183;916039;-67
2023/12/24 08:25:57;;;;;;;4.30;2.37;;;;;;;;;;729168;178;28015;-79
2023/12/24 08:28:24;;;;;;;5.40;2.57;;;;;;;;;;747049;182;1777154;-81
2023/12/24 08:30:49;;;;;;;4.50;3.13;;;;;;;;;;745082;184;878719;-77
2023/12/24 08:33:15;;;;;;;11.20;8.50;;;;;;;;;;740579;186;642312;-78
2023/12/24 08:35:41;;;;;;;9.77;5.40;;;;;;;;;;751854;187;627821;-78
2023/12/24 08:38:07;;;;;;;6.77;4.77;;;;;;;;;;745692;187;627945;-79
2023/12/24 08:40:33;;;;;;;7.85;5.53;;;;;;;;;;744153;187;815119;-77
2023/12/24 08:42:59;;;;;;;6.90;4.00;;;;;;;;;;743450;187;636790;-79
2023/12/24 08:45:25;;;;;;;4.47;3.03;;;;;;;;;;742537;185;629123;-77
2023/12/24 08:47:50;;;;;;;3.53;2.40;;;;;;;;;;745351;186;618270;-77
2023/12/24 08:50:16;;;;;;;3.50;2.00;;;;;;;;;;740413;186;622285;-74
2023/12/24 08:52:42;;;;;;;3.23;2.10;;;;;;;;;;746145;186;651718;-78
2023/12/24 08:55:08;;;;;;;3.67;2.57;;;;;;;;;;746639;188;630057;-77
2023/12/24 08:57:34;;;;;;;6.53;2.67;;;;;;;;;;737905;190;637491;-79
2023/12/24 09:00:00;;;;;;;3.30;1.43;;;;;;;;;;738963;187;641087;-80
2023/12/24 09:02:26;;;;;;;3.23;1.63;;;;;;;;;;727411;186;634721;-77
2023/12/24 09:04:51;;;;;;;3.07;1.70;;;;;;;;;;740528;187;637194;-79
2023/12/24 09:07:17;;;;;;;3.07;1.80;;;;;;;;;;748402;186;633200;-80
2023/12/24 09:09:43;;;;;;;3.93;2.40;;;;;;;;;;744787;187;681837;-80
2023/12/24 09:12:09;;;;;;;3.37;1.70;;;;;;;;;;744030;186;639706;-80
2023/12/24 09:14:35;;;;;;;4.55;2.10;;;;;;;;;;749718;186;635887;-79
2023/12/24 09:17:01;;;;;;;2.50;1.47;;;;;;;;;;744060;186;807858;-78
2023/12/24 09:19:26;;;;;;;3.37;2.13;;;;;;;;;;742068;186;653007;-79
2023/12/24 09:21:52;;;;;;;3.67;1.90;;;;;;;;;;746224;181;632133;-78
2023/12/24 09:24:18;;;;;;;3.20;1.70;;;;;;;;;;743326;187;635393;-78
2023/12/24 09:26:44;;;;;;;7.37;2.37;;;;;;;;;;745333;186;628931;-78
2023/12/24 09:29:11;;;;;;;3.67;2.00;;;;;;;;;;741691;187;636956;-80
2023/12/24 09:31:36;;;;;;;3.47;1.93;;;;;;;;;;742278;188;649588;-79
2023/12/24 09:34:02;;;;;;;3.97;2.33;;;;;;;;;;735788;189;678344;-77
2023/12/24 09:36:28;;;;;;;3.90;2.30;;;;;;;;;;742456;186;627737;-78
2023/12/24 09:38:54;;;;;;;5.40;2.73;;;;;;;;;;745556;187;625551;-79
2023/12/24 09:41:20;;;;;;;7.33;3.60;;;;;;;;;;742071;185;656624;-77
2023/12/24 09:43:46;;;;;;;3.50;2.10;;;;;;;;;;744343;187;627824;-79
2023/12/24 09:46:12;;;;;;;7.63;2.97;;;;;;;;;;750672;185;641632;-78
2023/12/24 09:48:37;;;;;;;3.47;2.60;;;;;;;;;;740629;187;644963;-77
2023/12/24 09:51:06;;;;;;;3.43;2.10;;;;;;;;;;745227;187;623321;-77
2023/12/24 09:53:29;;;;;;;3.00;2.00;;;;;;;;;;745497;187;638569;-78
2023/12/24 09:55:56;;;;;;;4.30;2.10;;;;;;;;;;744056;187;644201;-77
2023/12/24 09:58:22;;;;;;;5.60;2.80;;;;;;;;;;742936;187;664336;-78
2023/12/24 10:00:48;;;;;;;5.07;2.53;;;;;;;;;;739335;187;2183069;-77
2023/12/24 10:03:14;;;;;;;6.97;3.77;;;;;;;;;;742066;187;676174;-77
2023/12/24 10:05:46;;;;;;;4.30;3.20;;;;;;;;;;747641;184;704133;-79
2023/12/24 10:08:13;;;;;;;4.50;2.50;;;;;;;;;;742189;187;807472;-77
2023/12/24 10:10:39;;;;;;;3.87;2.53;;;;;;;;;;742935;187;750679;-80
2023/12/24 10:13:05;;;;;;;5.03;3.00;;;;;;;;;;746487;187;639801;-79
2023/12/24 10:15:32;;;;;;;3.37;2.37;;;;;;;;;;741089;184;627594;-78
2023/12/24 10:17:57;;;;;;;3.83;2.60;;;;;;;;;;740221;187;795016;-79
2023/12/24 10:20:23;;;;;;;4.47;2.60;;;;;;;;;;744841;186;692862;-78
2023/12/24 10:22:49;;;;;;;5.07;3.57;;;;;;;;;;736594;187;1203691;-78
2023/12/24 10:25:16;;;;;;;3.90;3.10;;;;;;;;;;737074;187;809305;-79
2023/12/24 10:27:41;;;;;;;4.45;3.30;;;;;;;;;;733539;188;2055332;-78
2023/12/24 10:30:12;;;;;;;4.73;3.00;;;;;;;;;;745891;186;868508;-78
2023/12/24 10:32:37;;;;;;;6.83;3.53;;;;;;;;;;745384;186;958960;-79
2023/12/24 10:35:04;;;;;;;5.90;2.90;;;;;;;;;;750164;186;726670;-78
2023/12/24 10:37:29;;;;;;;5.20;2.70;;;;;;;;;;750185;187;698688;-77
2023/12/24 10:40:01;;;;;;;5.33;3.00;;;;;;;;;;751123;184;683572;-79
2023/12/24 10:42:27;;;;;;;6.30;3.50;;;;;;;;;;750132;186;628394;-78
2023/12/24 10:44:53;;;;;;;4.50;2.47;;;;;;;;;;747503;187;629010;-77
2023/12/24 10:47:19;;;;;;;4.40;2.40;;;;;;;;;;738710;187;924821;-77
2023/12/24 10:49:45;;;;;;;4.43;2.53;;;;;;;;;;747249;187;827969;-76
2023/12/24 10:52:11;;;;;;;4.90;2.20;;;;;;;;;;743204;187;715570;-77
2023/12/24 10:54:36;;;;;;;7.93;2.90;;;;;;;;;;744487;187;654886;-78
2023/12/24 10:57:18;;;;;;;8.03;3.07;;;;;;;;;;730426;184;3501236;-78
2023/12/24 10:59:49;;;;;;;4.40;2.67;;;;;;;;;;741526;187;671046;-76
2023/12/24 11:02:15;;;;;;;4.87;3.00;;;;;;;;;;746105;187;790828;-77
2023/12/24 11:04:41;;;;;;;6.33;2.60;;;;;;;;;;751457;187;619426;-78
2023/12/24 11:07:07;;;;;;;3.53;2.37;;;;;;;;;;746393;187;876282;-76
2023/12/24 11:09:47;;;;;;;5.00;2.57;;;;;;;;;;748264;187;648730;-76
2023/12/24 11:12:13;;;;;;;5.17;3.60;;;;;;;;;;746325;187;692830;-78
2023/12/24 11:14:40;;;;;;;4.10;2.30;;;;;;;;;;747073;187;1313112;-77
2023/12/24 11:17:06;;;;;;;4.10;2.77;;;;;;;;;;741134;187;1028082;-78
2023/12/24 11:19:32;;;;;;;4.20;2.57;;;;;;;;;;743727;186;712725;-79
2023/12/24 11:22:05;;;;;;;5.13;2.83;;;;;;;;;;744842;186;846194;-78
2023/12/24 11:24:31;;;;;;;5.17;2.93;;;;;;;;;;751292;186;629413;-78
2023/12/24 11:26:57;;;;;;;7.20;3.67;;;;;;;;;;744911;186;639646;-77
2023/12/24 11:29:28;;;;;;;4.10;2.70;;;;;;;;;;748418;186;648232;-79
2023/12/24 11:31:54;;;;;;;5.30;2.80;;;;;;;;;;738874;186;655320;-76
2023/12/24 11:34:21;;;;;;;3.70;2.07;;;;;;;;;;747352;187;918996;-77
2023/12/24 11:36:47;;;;;;;4.73;2.67;;;;;;;;;;745743;186;631121;-77
2023/12/24 11:39:13;;;;;;;6.20;3.13;;;;;;;;;;742772;187;819139;-76
2023/12/24 11:41:39;;;;;;;4.83;3.27;;;;;;;;;;747561;187;643787;-75
2023/12/24 11:44:06;;;;;;;5.60;3.47;;;;;;;;;;738740;187;915649;-75
2023/12/24 11:46:31;;;;;;;5.93;3.27;;;;;;;;;;744468;185;815122;-75
2023/12/24 11:48:57;;;;;;;9.75;3.53;;;;;;;;;;744635;187;635185;-77
2023/12/24 11:51:24;;;;;;;9.00;4.43;;;;;;;;;;744736;185;810443;-77
2023/12/24 11:53:50;;;;;;;5.70;2.40;;;;;;;;;;733914;187;948480;-77
2023/12/24 11:56:16;;;;;;;5.43;3.47;;;;;;;;;;743146;187;902033;-77
2023/12/24 11:58:58;;;;;;;4.20;2.50;;;;;;;;;;747861;187;858150;-75
2023/12/24 12:01:24;;;;;;;4.50;3.00;;;;;;;;;;730023;187;1779778;-76
2023/12/24 12:03:54;;;;;;;4.53;2.40;;;;;;;;;;741480;187;1088171;-77
2023/12/24 12:06:19;;;;;;;4.75;2.80;;;;;;;;;;739048;184;1007109;-76
2023/12/24 12:08:46;;;;;;;3.70;2.13;;;;;;;;;;746249;187;818395;-79
2023/12/24 12:11:11;;;;;;;4.68;2.55;;;;;;;;;;738092;187;1148734;-73
2023/12/24 12:13:38;;;;;;;4.60;2.93;;;;;;;;;;738416;187;921267;-74
2023/12/24 12:16:03;;;;;;;8.20;3.93;;;;;;;;;;738888;185;1074477;-74
2023/12/24 12:18:29;;;;;;;6.47;3.55;;;;;;;;;;745775;187;817245;-75
2023/12/24 12:20:55;;;;;;;4.43;3.10;;;;;;;;;;740563;187;1083183;-74
2023/12/24 12:23:21;;;;;;;5.80;4.10;;;;;;;;;;740629;187;815544;-76
2023/12/24 12:25:46;;;;;;;6.43;4.20;;;;;;;;;;742791;187;915468;-74
2023/12/24 12:28:13;;;;;;;5.63;3.23;;;;;;;;;;741516;187;791642;-76
2023/12/24 12:30:38;;;;;;;3.93;2.80;;;;;;;;;;737677;187;1025394;-76
2023/12/24 12:33:04;;;;;;;4.77;2.63;;;;;;;;;;745285;187;866777;-75
2023/12/24 12:35:30;;;;;;;7.07;3.60;;;;;;;;;;739206;184;783854;-76
2023/12/24 12:37:56;;;;;;;7.23;4.30;;;;;;;;;;738191;187;937967;-75
2023/12/24 12:40:22;;;;;;;11.97;3.70;;;;;;;;;;744096;187;816854;-74
2023/12/24 12:42:48;;;;;;;6.37;4.00;;;;;;;;;;745317;185;816963;-74
2023/12/24 12:45:14;;;;;;;8.63;3.57;;;;;;;;;;739207;184;1059446;-73
2023/12/24 12:47:40;;;;;;;4.70;2.60;;;;;;;;;;740782;187;1049576;-75
2023/12/24 12:50:06;;;;;;;3.70;1.90;;;;;;;;;;745525;187;919158;-76
2023/12/24 12:52:32;;;;;;;6.73;3.10;;;;;;;;;;737479;187;918673;-75
2023/12/24 12:55:03;;;;;;;4.03;2.20;;;;;;;;;;742761;187;866213;-75
2023/12/24 12:57:29;;;;;;;4.20;1.80;;;;;;;;;;741337;187;958235;-77
2023/12/24 13:00:09;;;;;;;5.47;3.10;;;;;;;;;;745707;187;1029377;-75
2023/12/24 13:02:34;;;;;;;6.33;4.43;;;;;;;;;;733765;187;1281579;-75
2023/12/24 13:05:00;;;;;;;5.50;3.23;;;;;;;;;;741768;187;905088;-75
2023/12/24 13:07:28;;;;;;;6.90;4.00;;;;;;;;;;737321;187;996616;-74
2023/12/24 13:09:54;;;;;;;7.50;3.77;;;;;;;;;;738472;187;804805;-74
2023/12/24 13:12:20;;;;;;;5.30;3.77;;;;;;;;;;735740;188;880997;-76
2023/12/24 13:14:53;;;;;;;7.13;3.97;;;;;;;;;;738548;187;926149;-76
2023/12/24 13:17:22;;;;;;;8.50;4.77;;;;;;;;;;739526;187;1022389;-75
2023/12/24 13:19:46;;;;;;;6.70;4.23;;;;;;;;;;751930;184;921184;-76
2023/12/24 13:22:12;;;;;;;9.50;3.70;;;;;;;;;;741818;187;919628;-75
2023/12/24 13:24:38;;;;;;;4.93;2.63;;;;;;;;;;742697;187;918721;-76
2023/12/24 13:27:04;;;;;;;7.70;3.20;;;;;;;;;;748325;186;918492;-75
2023/12/24 13:29:29;;;;;;;4.43;2.83;;;;;;;;;;738785;187;943361;-75
2023/12/24 13:31:55;;;;;;;5.65;3.33;;;;;;;;;;737289;187;925163;-76
2023/12/24 13:34:21;;;;;;;4.10;3.37;;;;;;;;;;742612;187;1509594;-76
2023/12/24 13:36:47;;;;;;;7.10;3.30;;;;;;;;;;741367;187;891124;-75
2023/12/24 13:39:15;;;;;;;4.47;2.60;;;;;;;;;;739172;187;907709;-75
2023/12/24 13:41:40;;;;;;;5.90;3.20;;;;;;;;;;743262;187;920363;-77
2023/12/24 13:44:06;;;;;;;7.97;3.27;;;;;;;;;;740690;187;990468;-74
2023/12/24 13:46:31;;;;;;;6.00;3.07;;;;;;;;;;743274;187;917740;-73
2023/12/24 13:48:57;;;;;;;6.50;3.58;;;;;;;;;;743773;187;922553;-74
2023/12/24 13:51:23;;;;;;;6.83;2.97;;;;;;;;;;745584;187;1023069;-76
2023/12/24 13:53:49;;;;;;;5.93;4.17;;;;;;;;;;742558;186;919207;-74
2023/12/24 13:56:15;;;;;;;5.00;3.10;;;;;;;;;;741727;184;1123264;-76
2023/12/24 13:58:41;;;;;;;5.87;3.20;;;;;;;;;;746148;187;917933;-75
2023/12/24 14:01:07;;;;;;;6.47;3.73;;;;;;;;;;740045;187;918983;-74
2023/12/24 14:03:32;;;;;;;5.40;2.97;;;;;;;;;;741514;187;928177;-75
2023/12/24 14:05:58;;;;;;;10.97;4.63;;;;;;;;;;748910;187;637308;-75
2023/12/24 14:08:24;;;;;;;9.03;5.07;;;;;;;;;;743811;187;918557;-77
2023/12/24 14:10:50;;;;;;;8.60;4.37;;;;;;;;;;740456;187;916561;-74
2023/12/24 14:13:16;;;;;;;8.33;4.00;;;;;;;;;;738704;187;952204;-74
2023/12/24 14:15:42;;;;;;;9.20;3.93;;;;;;;;;;743300;184;816246;-75
2023/12/24 14:18:07;;;;;;;7.00;4.30;;;;;;;;;;741999;187;920991;-74
2023/12/24 14:20:33;;;;;;;8.20;4.53;;;;;;;;;;737729;188;931499;-75
2023/12/24 14:22:59;;;;;;;8.03;4.17;;;;;;;;;;748644;187;914509;-75
2023/12/24 14:25:25;;;;;;;11.00;3.97;;;;;;;;;;738039;187;915314;-76
2023/12/24 14:27:51;;;;;;;5.87;3.00;;;;;;;;;;740910;187;812245;-75
2023/12/24 14:30:17;;;;;;;8.00;4.40;;;;;;;;;;745302;187;917355;-75
2023/12/24 14:32:43;;;;;;;7.77;3.53;;;;;;;;;;736952;187;918622;-77
2023/12/24 14:35:09;;;;;;;5.77;3.70;;;;;;;;;;742010;185;845200;-78
2023/12/24 14:37:35;;;;;;;9.43;4.07;;;;;;;;;;740147;187;1181760;-76
2023/12/24 14:40:01;;;;;;;6.77;3.90;;;;;;;;;;737885;189;920012;-76
2023/12/24 14:42:27;;;;;;;5.77;3.17;;;;;;;;;;732572;187;1177176;-76
2023/12/24 14:44:54;;;;;;;4.67;2.57;;;;;;;;;;738483;187;967251;-75
2023/12/24 14:47:24;;;;;;;4.50;2.67;;;;;;;;;;746686;187;894790;-77
2023/12/24 14:49:47;;;;;;;4.80;2.70;;;;;;;;;;742035;187;904645;-76
2023/12/24 14:52:13;;;;;;;4.70;2.20;;;;;;;;;;741690;187;1011064;-75
2023/12/24 14:54:39;;;;;;;4.15;2.42;;;;;;;;;;742678;188;1685795;-75
2023/12/24 14:57:05;;;;;;;4.80;2.53;;;;;;;;;;739563;187;651991;-75
2023/12/24 14:59:31;;;;;;;5.43;2.67;;;;;;;;;;741600;187;918839;-76
2023/12/24 15:01:57;;;;;;;5.93;2.80;;;;;;;;;;745137;184;916939;-76
2023/12/24 15:04:25;;;;;;;6.50;4.60;;;;;;;;;;740505;189;968087;-77
2023/12/24 15:06:51;;;;;;;5.90;3.20;;;;;;;;;;740512;188;881621;-77
2023/12/24 15:09:17;;;;;;;7.53;4.20;;;;;;;;;;744418;187;928654;-78
2023/12/24 15:11:42;;;;;;;8.23;4.80;;;;;;;;;;743011;185;1079463;-76
2023/12/24 15:14:08;;;;;;;7.00;4.37;;;;;;;;;;741235;187;914618;-76
2023/12/24 15:16:34;;;;;;;5.30;3.50;;;;;;;;;;741920;186;922605;-77